sensor_id;sensor_type;location;lat;lon;timestamp;P1;durP1;ratioP1;P2;durP2;ratioP2
61096;SDS011;46977;50.936;6.908;2023-02-15T00:01:07;18.35;;;13.25;;
61096;SDS011;46977;50.936;6.908;2023-02-15T00:04:11;16.45;;;11.55;;
61096;SDS011;46977;50.936;6.908;2023-02-15T00:07:15;21.58;;;13.90;;
61096;SDS011;46977;50.936;6.908;2023-02-15T00:10:19;23.23;;;14.27;;
61096;SDS011;46977;50.936;6.908;2023-02-15T00:13:22;16.23;;;10.93;;
61096;SDS011;46977;50.936;6.908;2023-02-15T00:16:24;23.45;;;13.82;;
61096;SDS011;46977;50.936;6.908;2023-02-15T00:19:27;22.42;;;13.68;;
61096;SDS011;46977;50.936;6.908;2023-02-15T00:22:29;19.08;;;12.98;;
61096;SDS011;46977;50.936;6.908;2023-02-15T00:25:33;21.77;;;12.93;;
61096;SDS011;46977;50.936;6.908;2023-02-15T00:28:38;15.52;;;11.05;;
61096;SDS011;46977;50.936;6.908;2023-02-15T00:31:40;21.35;;;12.05;;
61096;SDS011;46977;50.936;6.908;2023-02-15T00:34:43;24.45;;;14.15;;
61096;SDS011;46977;50.936;6.908;2023-02-15T00:37:45;22.27;;;13.00;;
61096;SDS011;46977;50.936;6.908;2023-02-15T00:40:52;21.77;;;13.27;;
61096;SDS011;46977;50.936;6.908;2023-02-15T00:43:55;19.63;;;12.48;;
61096;SDS011;46977;50.936;6.908;2023-02-15T00:46:57;20.23;;;13.18;;
61096;SDS011;46977;50.936;6.908;2023-02-15T00:50:00;20.65;;;12.77;;
61096;SDS011;46977;50.936;6.908;2023-02-15T00:53:02;20.67;;;13.30;;
61096;SDS011;46977;50.936;6.908;2023-02-15T00:56:06;22.45;;;12.68;;
61096;SDS011;46977;50.936;6.908;2023-02-15T00:59:09;23.13;;;13.13;;
61096;SDS011;46977;50.936;6.908;2023-02-15T01:02:11;21.88;;;13.32;;
61096;SDS011;46977;50.936;6.908;2023-02-15T01:05:14;16.15;;;10.60;;
61096;SDS011;46977;50.936;6.908;2023-02-15T01:08:18;17.60;;;10.80;;
61096;SDS011;46977;50.936;6.908;2023-02-15T01:11:22;22.00;;;13.00;;
61096;SDS011;46977;50.936;6.908;2023-02-15T01:14:25;19.65;;;12.20;;
61096;SDS011;46977;50.936;6.908;2023-02-15T01:17:27;20.25;;;11.93;;
61096;SDS011;46977;50.936;6.908;2023-02-15T01:20:33;20.52;;;13.48;;
61096;SDS011;46977;50.936;6.908;2023-02-15T01:23:38;23.15;;;14.20;;
61096;SDS011;46977;50.936;6.908;2023-02-15T01:26:42;26.63;;;14.68;;
61096;SDS011;46977;50.936;6.908;2023-02-15T01:29:45;17.45;;;12.25;;
61096;SDS011;46977;50.936;6.908;2023-02-15T01:32:49;18.83;;;11.80;;
61096;SDS011;46977;50.936;6.908;2023-02-15T01:35:55;20.75;;;13.32;;
61096;SDS011;46977;50.936;6.908;2023-02-15T01:38:58;21.05;;;13.57;;
61096;SDS011;46977;50.936;6.908;2023-02-15T01:42:02;23.13;;;13.30;;
61096;SDS011;46977;50.936;6.908;2023-02-15T01:45:05;18.73;;;12.18;;
61096;SDS011;46977;50.936;6.908;2023-02-15T01:48:22;20.88;;;13.35;;
61096;SDS011;46977;50.936;6.908;2023-02-15T01:51:28;14.20;;;9.30;;
61096;SDS011;46977;50.936;6.908;2023-02-15T01:54:33;24.67;;;13.18;;
61096;SDS011;46977;50.936;6.908;2023-02-15T01:57:40;19.77;;;12.25;;
61096;SDS011;46977;50.936;6.908;2023-02-15T02:00:44;23.20;;;12.88;;
61096;SDS011;46977;50.936;6.908;2023-02-15T02:03:49;21.50;;;12.35;;
61096;SDS011;46977;50.936;6.908;2023-02-15T02:06:55;18.52;;;11.30;;
61096;SDS011;46977;50.936;6.908;2023-02-15T02:09:59;21.80;;;12.63;;
61096;SDS011;46977;50.936;6.908;2023-02-15T02:13:05;20.20;;;11.93;;
61096;SDS011;46977;50.936;6.908;2023-02-15T02:16:12;22.95;;;13.00;;
61096;SDS011;46977;50.936;6.908;2023-02-15T02:19:27;19.83;;;12.07;;
61096;SDS011;46977;50.936;6.908;2023-02-15T02:23:03;21.20;;;13.23;;
61096;SDS011;46977;50.936;6.908;2023-02-15T02:33:45;20.60;;;12.65;;
61096;SDS011;46977;50.936;6.908;2023-02-15T02:36:52;21.27;;;12.85;;
61096;SDS011;46977;50.936;6.908;2023-02-15T02:39:59;23.10;;;13.05;;
61096;SDS011;46977;50.936;6.908;2023-02-15T02:43:09;19.33;;;11.65;;
61096;SDS011;46977;50.936;6.908;2023-02-15T02:46:14;22.25;;;13.65;;
61096;SDS011;46977;50.936;6.908;2023-02-15T02:49:31;21.60;;;12.57;;
61096;SDS011;46977;50.936;6.908;2023-02-15T02:52:39;22.40;;;13.23;;
61096;SDS011;46977;50.936;6.908;2023-02-15T02:55:43;17.77;;;11.18;;
61096;SDS011;46977;50.936;6.908;2023-02-15T02:58:48;21.65;;;12.75;;
61096;SDS011;46977;50.936;6.908;2023-02-15T03:01:55;22.92;;;13.07;;
61096;SDS011;46977;50.936;6.908;2023-02-15T03:05:02;25.70;;;13.07;;
61096;SDS011;46977;50.936;6.908;2023-02-15T03:08:08;22.17;;;12.63;;
61096;SDS011;46977;50.936;6.908;2023-02-15T03:11:12;18.98;;;11.65;;
61096;SDS011;46977;50.936;6.908;2023-02-15T03:14:16;18.52;;;11.90;;
61096;SDS011;46977;50.936;6.908;2023-02-15T03:17:21;23.75;;;12.48;;
61096;SDS011;46977;50.936;6.908;2023-02-15T03:20:27;21.70;;;12.40;;
61096;SDS011;46977;50.936;6.908;2023-02-15T03:23:35;21.95;;;13.27;;
61096;SDS011;46977;50.936;6.908;2023-02-15T03:26:39;19.83;;;11.40;;
61096;SDS011;46977;50.936;6.908;2023-02-15T03:29:45;19.42;;;11.30;;
61096;SDS011;46977;50.936;6.908;2023-02-15T03:32:48;21.80;;;11.18;;
61096;SDS011;46977;50.936;6.908;2023-02-15T03:35:54;20.15;;;12.25;;
61096;SDS011;46977;50.936;6.908;2023-02-15T03:39:03;21.80;;;12.10;;
61096;SDS011;46977;50.936;6.908;2023-02-15T03:42:10;19.58;;;11.93;;
61096;SDS011;46977;50.936;6.908;2023-02-15T03:45:17;21.23;;;12.65;;
61096;SDS011;46977;50.936;6.908;2023-02-15T03:48:25;21.17;;;12.90;;
61096;SDS011;46977;50.936;6.908;2023-02-15T03:51:33;18.67;;;11.00;;
61096;SDS011;46977;50.936;6.908;2023-02-15T03:54:38;20.05;;;12.45;;
61096;SDS011;46977;50.936;6.908;2023-02-15T03:57:44;20.88;;;12.02;;
61096;SDS011;46977;50.936;6.908;2023-02-15T04:01:11;20.88;;;12.25;;
61096;SDS011;46977;50.936;6.908;2023-02-15T04:04:36;18.13;;;10.10;;
61096;SDS011;46977;50.936;6.908;2023-02-15T04:07:41;20.48;;;10.40;;
61096;SDS011;46977;50.936;6.908;2023-02-15T04:10:43;22.48;;;13.23;;
61096;SDS011;46977;50.936;6.908;2023-02-15T04:13:55;19.42;;;11.57;;
61096;SDS011;46977;50.936;6.908;2023-02-15T04:16:58;22.52;;;11.77;;
61096;SDS011;46977;50.936;6.908;2023-02-15T04:20:00;19.10;;;11.55;;
61096;SDS011;46977;50.936;6.908;2023-02-15T04:23:22;18.30;;;10.88;;
61096;SDS011;46977;50.936;6.908;2023-02-15T04:26:43;22.25;;;13.18;;
61096;SDS011;46977;50.936;6.908;2023-02-15T04:29:45;20.35;;;11.60;;
61096;SDS011;46977;50.936;6.908;2023-02-15T04:32:48;16.55;;;9.50;;
61096;SDS011;46977;50.936;6.908;2023-02-15T04:35:50;20.75;;;12.82;;
61096;SDS011;46977;50.936;6.908;2023-02-15T04:38:54;17.63;;;11.07;;
61096;SDS011;46977;50.936;6.908;2023-02-15T04:41:56;21.23;;;11.98;;
61096;SDS011;46977;50.936;6.908;2023-02-15T04:44:58;19.65;;;11.40;;
61096;SDS011;46977;50.936;6.908;2023-02-15T04:48:02;19.05;;;10.95;;
61096;SDS011;46977;50.936;6.908;2023-02-15T04:51:05;19.40;;;11.25;;
61096;SDS011;46977;50.936;6.908;2023-02-15T04:54:09;19.52;;;11.30;;
61096;SDS011;46977;50.936;6.908;2023-02-15T04:57:12;16.13;;;10.23;;
61096;SDS011;46977;50.936;6.908;2023-02-15T05:00:14;16.08;;;9.80;;
61096;SDS011;46977;50.936;6.908;2023-02-15T05:03:17;20.80;;;11.13;;
61096;SDS011;46977;50.936;6.908;2023-02-15T05:06:20;18.60;;;10.35;;
61096;SDS011;46977;50.936;6.908;2023-02-15T05:09:24;21.95;;;11.98;;
61096;SDS011;46977;50.936;6.908;2023-02-15T05:12:26;20.42;;;11.80;;
61096;SDS011;46977;50.936;6.908;2023-02-15T05:15:29;10.82;;;7.90;;
61096;SDS011;46977;50.936;6.908;2023-02-15T05:18:31;15.05;;;9.85;;
61096;SDS011;46977;50.936;6.908;2023-02-15T05:21:34;20.65;;;10.40;;
61096;SDS011;46977;50.936;6.908;2023-02-15T05:24:38;15.95;;;10.43;;
61096;SDS011;46977;50.936;6.908;2023-02-15T05:27:59;18.50;;;10.38;;
61096;SDS011;46977;50.936;6.908;2023-02-15T05:31:19;18.58;;;10.43;;
61096;SDS011;46977;50.936;6.908;2023-02-15T05:34:22;17.50;;;8.65;;
61096;SDS011;46977;50.936;6.908;2023-02-15T05:37:24;14.68;;;9.60;;
61096;SDS011;46977;50.936;6.908;2023-02-15T05:40:28;20.75;;;11.20;;
61096;SDS011;46977;50.936;6.908;2023-02-15T05:43:31;12.55;;;7.70;;
61096;SDS011;46977;50.936;6.908;2023-02-15T05:46:33;17.80;;;10.15;;
61096;SDS011;46977;50.936;6.908;2023-02-15T05:49:36;16.58;;;9.57;;
61096;SDS011;46977;50.936;6.908;2023-02-15T05:52:38;18.80;;;11.10;;
61096;SDS011;46977;50.936;6.908;2023-02-15T05:55:42;17.00;;;10.57;;
61096;SDS011;46977;50.936;6.908;2023-02-15T05:58:44;14.68;;;7.07;;
61096;SDS011;46977;50.936;6.908;2023-02-15T06:01:46;13.32;;;9.02;;
61096;SDS011;46977;50.936;6.908;2023-02-15T06:04:48;15.57;;;10.52;;
61096;SDS011;46977;50.936;6.908;2023-02-15T06:07:51;14.13;;;9.48;;
61096;SDS011;46977;50.936;6.908;2023-02-15T06:10:54;19.55;;;10.65;;
61096;SDS011;46977;50.936;6.908;2023-02-15T06:13:57;16.58;;;10.57;;
61096;SDS011;46977;50.936;6.908;2023-02-15T06:17:00;19.02;;;11.30;;
61096;SDS011;46977;50.936;6.908;2023-02-15T06:20:03;19.20;;;11.27;;
61096;SDS011;46977;50.936;6.908;2023-02-15T06:23:06;18.27;;;10.85;;
61096;SDS011;46977;50.936;6.908;2023-02-15T06:26:10;20.95;;;10.85;;
61096;SDS011;46977;50.936;6.908;2023-02-15T06:29:12;14.73;;;8.63;;
61096;SDS011;46977;50.936;6.908;2023-02-15T06:32:14;18.80;;;9.73;;
61096;SDS011;46977;50.936;6.908;2023-02-15T06:35:17;18.77;;;10.35;;
61096;SDS011;46977;50.936;6.908;2023-02-15T06:38:20;16.60;;;9.65;;
61096;SDS011;46977;50.936;6.908;2023-02-15T06:41:24;15.07;;;10.63;;
61096;SDS011;46977;50.936;6.908;2023-02-15T06:44:26;17.77;;;10.43;;
61096;SDS011;46977;50.936;6.908;2023-02-15T06:47:28;17.38;;;9.95;;
61096;SDS011;46977;50.936;6.908;2023-02-15T06:50:31;13.80;;;8.13;;
61096;SDS011;46977;50.936;6.908;2023-02-15T06:53:33;12.73;;;8.82;;
61096;SDS011;46977;50.936;6.908;2023-02-15T06:56:38;15.82;;;9.55;;
61096;SDS011;46977;50.936;6.908;2023-02-15T06:59:40;17.15;;;10.00;;
61096;SDS011;46977;50.936;6.908;2023-02-15T07:02:43;17.35;;;9.63;;
61096;SDS011;46977;50.936;6.908;2023-02-15T07:05:46;15.18;;;9.25;;
61096;SDS011;46977;50.936;6.908;2023-02-15T07:08:50;14.75;;;8.70;;
61096;SDS011;46977;50.936;6.908;2023-02-15T07:11:54;13.52;;;8.77;;
61096;SDS011;46977;50.936;6.908;2023-02-15T07:15:15;16.08;;;9.55;;
61096;SDS011;46977;50.936;6.908;2023-02-15T07:18:18;12.70;;;8.93;;
61096;SDS011;46977;50.936;6.908;2023-02-15T07:21:21;10.55;;;7.57;;
61096;SDS011;46977;50.936;6.908;2023-02-15T07:24:23;13.77;;;8.05;;
61096;SDS011;46977;50.936;6.908;2023-02-15T07:27:27;11.32;;;8.25;;
61096;SDS011;46977;50.936;6.908;2023-02-15T07:30:29;10.43;;;6.88;;
61096;SDS011;46977;50.936;6.908;2023-02-15T07:33:32;9.25;;;7.20;;
61096;SDS011;46977;50.936;6.908;2023-02-15T07:36:35;7.97;;;6.82;;
61096;SDS011;46977;50.936;6.908;2023-02-15T07:39:38;9.43;;;6.82;;
61096;SDS011;46977;50.936;6.908;2023-02-15T07:42:41;8.07;;;6.22;;
61096;SDS011;46977;50.936;6.908;2023-02-15T07:45:44;8.70;;;6.45;;
61096;SDS011;46977;50.936;6.908;2023-02-15T07:48:46;8.45;;;6.25;;
61096;SDS011;46977;50.936;6.908;2023-02-15T07:51:49;8.88;;;7.35;;
61096;SDS011;46977;50.936;6.908;2023-02-15T07:54:51;10.57;;;6.43;;
61096;SDS011;46977;50.936;6.908;2023-02-15T07:57:55;10.05;;;6.38;;
61096;SDS011;46977;50.936;6.908;2023-02-15T08:00:57;7.60;;;6.38;;
61096;SDS011;46977;50.936;6.908;2023-02-15T08:03:59;9.40;;;6.82;;
61096;SDS011;46977;50.936;6.908;2023-02-15T08:07:03;9.05;;;6.93;;
61096;SDS011;46977;50.936;6.908;2023-02-15T08:10:06;10.18;;;7.50;;
61096;SDS011;46977;50.936;6.908;2023-02-15T08:13:10;8.27;;;6.70;;
61096;SDS011;46977;50.936;6.908;2023-02-15T08:16:14;7.97;;;6.35;;
61096;SDS011;46977;50.936;6.908;2023-02-15T08:19:18;6.88;;;5.82;;
61096;SDS011;46977;50.936;6.908;2023-02-15T08:22:21;8.05;;;5.85;;
61096;SDS011;46977;50.936;6.908;2023-02-15T08:25:23;7.70;;;6.30;;
61096;SDS011;46977;50.936;6.908;2023-02-15T08:28:27;7.80;;;5.68;;
61096;SDS011;46977;50.936;6.908;2023-02-15T08:31:29;7.18;;;5.70;;
61096;SDS011;46977;50.936;6.908;2023-02-15T08:34:32;8.27;;;6.75;;
61096;SDS011;46977;50.936;6.908;2023-02-15T08:37:36;6.75;;;5.20;;
61096;SDS011;46977;50.936;6.908;2023-02-15T08:40:38;8.55;;;6.63;;
61096;SDS011;46977;50.936;6.908;2023-02-15T08:43:42;8.57;;;6.78;;
61096;SDS011;46977;50.936;6.908;2023-02-15T08:46:45;8.68;;;6.88;;
61096;SDS011;46977;50.936;6.908;2023-02-15T08:49:49;7.10;;;5.78;;
61096;SDS011;46977;50.936;6.908;2023-02-15T08:52:53;8.43;;;6.38;;
61096;SDS011;46977;50.936;6.908;2023-02-15T08:55:55;8.90;;;5.82;;
61096;SDS011;46977;50.936;6.908;2023-02-15T08:59:00;10.60;;;6.80;;
61096;SDS011;46977;50.936;6.908;2023-02-15T09:02:03;8.45;;;6.30;;
61096;SDS011;46977;50.936;6.908;2023-02-15T09:05:05;7.90;;;6.40;;
61096;SDS011;46977;50.936;6.908;2023-02-15T09:08:08;6.47;;;5.05;;
61096;SDS011;46977;50.936;6.908;2023-02-15T09:11:12;10.88;;;6.95;;
61096;SDS011;46977;50.936;6.908;2023-02-15T09:14:17;8.90;;;6.53;;
61096;SDS011;46977;50.936;6.908;2023-02-15T09:17:22;7.70;;;5.85;;
61096;SDS011;46977;50.936;6.908;2023-02-15T09:20:24;8.20;;;6.45;;
61096;SDS011;46977;50.936;6.908;2023-02-15T09:23:27;6.53;;;5.38;;
61096;SDS011;46977;50.936;6.908;2023-02-15T09:26:30;8.23;;;6.28;;
61096;SDS011;46977;50.936;6.908;2023-02-15T09:29:35;7.63;;;5.50;;
61096;SDS011;46977;50.936;6.908;2023-02-15T09:32:38;6.43;;;5.75;;
61096;SDS011;46977;50.936;6.908;2023-02-15T09:35:40;6.85;;;6.15;;
61096;SDS011;46977;50.936;6.908;2023-02-15T09:38:42;7.93;;;6.50;;
61096;SDS011;46977;50.936;6.908;2023-02-15T09:41:52;6.22;;;5.60;;
61096;SDS011;46977;50.936;6.908;2023-02-15T09:45:27;7.68;;;5.20;;
61096;SDS011;46977;50.936;6.908;2023-02-15T09:48:39;6.45;;;5.53;;
61096;SDS011;46977;50.936;6.908;2023-02-15T09:51:45;7.88;;;4.63;;
61096;SDS011;46977;50.936;6.908;2023-02-15T09:55:05;7.25;;;5.20;;
61096;SDS011;46977;50.936;6.908;2023-02-15T09:58:16;8.60;;;5.80;;
61096;SDS011;46977;50.936;6.908;2023-02-15T10:01:25;8.50;;;5.80;;
61096;SDS011;46977;50.936;6.908;2023-02-15T10:04:34;6.43;;;5.47;;
61096;SDS011;46977;50.936;6.908;2023-02-15T10:07:55;8.02;;;6.05;;
61096;SDS011;46977;50.936;6.908;2023-02-15T10:11:34;7.10;;;5.90;;
61096;SDS011;46977;50.936;6.908;2023-02-15T10:18:22;7.03;;;6.32;;
61096;SDS011;46977;50.936;6.908;2023-02-15T10:21:36;7.28;;;6.10;;
61096;SDS011;46977;50.936;6.908;2023-02-15T10:24:47;6.68;;;6.07;;
61096;SDS011;46977;50.936;6.908;2023-02-15T10:28:04;7.75;;;6.25;;
61096;SDS011;46977;50.936;6.908;2023-02-15T10:31:09;7.80;;;6.47;;
61096;SDS011;46977;50.936;6.908;2023-02-15T10:34:18;7.38;;;5.68;;
61096;SDS011;46977;50.936;6.908;2023-02-15T10:40:51;8.70;;;6.00;;
61096;SDS011;46977;50.936;6.908;2023-02-15T10:44:05;5.35;;;4.85;;
61096;SDS011;46977;50.936;6.908;2023-02-15T10:47:27;13.10;;;6.32;;
61096;SDS011;46977;50.936;6.908;2023-02-15T10:50:39;7.32;;;5.55;;
61096;SDS011;46977;50.936;6.908;2023-02-15T10:53:52;7.90;;;5.63;;
61096;SDS011;46977;50.936;6.908;2023-02-15T10:57:03;8.23;;;6.55;;
61096;SDS011;46977;50.936;6.908;2023-02-15T11:00:09;6.97;;;5.63;;
61096;SDS011;46977;50.936;6.908;2023-02-15T11:03:18;8.80;;;6.03;;
61096;SDS011;46977;50.936;6.908;2023-02-15T11:06:28;6.53;;;5.68;;
61096;SDS011;46977;50.936;6.908;2023-02-15T11:09:33;7.97;;;6.13;;
61096;SDS011;46977;50.936;6.908;2023-02-15T11:12:39;10.02;;;6.20;;
61096;SDS011;46977;50.936;6.908;2023-02-15T11:15:43;6.43;;;4.80;;
61096;SDS011;46977;50.936;6.908;2023-02-15T11:18:50;9.30;;;5.82;;
61096;SDS011;46977;50.936;6.908;2023-02-15T11:21:57;7.05;;;5.93;;
61096;SDS011;46977;50.936;6.908;2023-02-15T11:25:05;7.60;;;5.80;;
61096;SDS011;46977;50.936;6.908;2023-02-15T11:28:19;9.02;;;5.85;;
61096;SDS011;46977;50.936;6.908;2023-02-15T11:31:24;9.98;;;6.68;;
61096;SDS011;46977;50.936;6.908;2023-02-15T11:34:29;7.20;;;5.97;;
61096;SDS011;46977;50.936;6.908;2023-02-15T11:37:37;7.38;;;5.68;;
61096;SDS011;46977;50.936;6.908;2023-02-15T11:40:44;7.50;;;6.32;;
61096;SDS011;46977;50.936;6.908;2023-02-15T11:43:50;7.60;;;5.95;;
61096;SDS011;46977;50.936;6.908;2023-02-15T11:46:56;8.15;;;5.72;;
61096;SDS011;46977;50.936;6.908;2023-02-15T11:49:59;7.80;;;5.93;;
61096;SDS011;46977;50.936;6.908;2023-02-15T11:53:03;7.35;;;6.22;;
61096;SDS011;46977;50.936;6.908;2023-02-15T11:56:11;6.15;;;5.55;;
61096;SDS011;46977;50.936;6.908;2023-02-15T11:59:17;7.07;;;6.35;;
61096;SDS011;46977;50.936;6.908;2023-02-15T12:02:26;8.85;;;6.47;;
61096;SDS011;46977;50.936;6.908;2023-02-15T12:05:31;9.35;;;5.95;;
61096;SDS011;46977;50.936;6.908;2023-02-15T12:08:38;9.32;;;6.28;;
61096;SDS011;46977;50.936;6.908;2023-02-15T12:11:42;6.53;;;5.82;;
61096;SDS011;46977;50.936;6.908;2023-02-15T12:14:46;9.00;;;6.05;;
61096;SDS011;46977;50.936;6.908;2023-02-15T12:17:51;7.72;;;6.60;;
61096;SDS011;46977;50.936;6.908;2023-02-15T12:20:54;8.57;;;6.43;;
61096;SDS011;46977;50.936;6.908;2023-02-15T12:24:02;8.70;;;6.35;;
61096;SDS011;46977;50.936;6.908;2023-02-15T12:27:10;8.90;;;6.75;;
61096;SDS011;46977;50.936;6.908;2023-02-15T12:30:17;8.10;;;5.90;;
61096;SDS011;46977;50.936;6.908;2023-02-15T12:33:25;9.13;;;7.07;;
61096;SDS011;46977;50.936;6.908;2023-02-15T12:36:32;6.97;;;6.03;;
61096;SDS011;46977;50.936;6.908;2023-02-15T12:39:52;8.82;;;6.35;;
61096;SDS011;46977;50.936;6.908;2023-02-15T12:42:56;8.27;;;6.32;;
61096;SDS011;46977;50.936;6.908;2023-02-15T12:49:21;10.45;;;6.85;;
61096;SDS011;46977;50.936;6.908;2023-02-15T12:52:24;8.20;;;6.25;;
61096;SDS011;46977;50.936;6.908;2023-02-15T12:55:28;10.43;;;6.40;;
61096;SDS011;46977;50.936;6.908;2023-02-15T12:58:32;7.28;;;6.03;;
61096;SDS011;46977;50.936;6.908;2023-02-15T13:01:35;7.85;;;5.63;;
61096;SDS011;46977;50.936;6.908;2023-02-15T13:04:46;9.63;;;6.80;;
61096;SDS011;46977;50.936;6.908;2023-02-15T13:07:49;7.57;;;6.18;;
61096;SDS011;46977;50.936;6.908;2023-02-15T13:10:54;8.27;;;7.05;;
61096;SDS011;46977;50.936;6.908;2023-02-15T13:13:59;9.57;;;5.93;;
61096;SDS011;46977;50.936;6.908;2023-02-15T13:17:03;7.82;;;5.90;;
61096;SDS011;46977;50.936;6.908;2023-02-15T13:20:13;7.80;;;5.68;;
61096;SDS011;46977;50.936;6.908;2023-02-15T13:23:24;5.95;;;5.28;;
61096;SDS011;46977;50.936;6.908;2023-02-15T13:26:31;9.27;;;6.90;;
61096;SDS011;46977;50.936;6.908;2023-02-15T13:29:34;7.53;;;5.93;;
61096;SDS011;46977;50.936;6.908;2023-02-15T13:32:39;8.63;;;5.80;;
61096;SDS011;46977;50.936;6.908;2023-02-15T13:35:44;7.60;;;5.80;;
61096;SDS011;46977;50.936;6.908;2023-02-15T13:38:54;8.57;;;6.70;;
61096;SDS011;46977;50.936;6.908;2023-02-15T13:42:05;6.47;;;5.10;;
61096;SDS011;46977;50.936;6.908;2023-02-15T13:45:24;6.50;;;5.78;;
61096;SDS011;46977;50.936;6.908;2023-02-15T13:48:35;8.00;;;5.28;;
61096;SDS011;46977;50.936;6.908;2023-02-15T13:51:53;8.25;;;5.78;;
61096;SDS011;46977;50.936;6.908;2023-02-15T13:55:03;6.50;;;5.80;;
61096;SDS011;46977;50.936;6.908;2023-02-15T13:58:50;7.00;;;5.93;;
61096;SDS011;46977;50.936;6.908;2023-02-15T14:02:15;6.07;;;5.43;;
61096;SDS011;46977;50.936;6.908;2023-02-15T14:05:42;7.25;;;6.22;;
61096;SDS011;46977;50.936;6.908;2023-02-15T14:08:57;8.65;;;6.47;;
61096;SDS011;46977;50.936;6.908;2023-02-15T14:12:14;7.32;;;4.68;;
61096;SDS011;46977;50.936;6.908;2023-02-15T14:15:30;8.02;;;5.25;;
61096;SDS011;46977;50.936;6.908;2023-02-15T14:18:35;8.07;;;5.90;;
61096;SDS011;46977;50.936;6.908;2023-02-15T14:21:42;7.30;;;5.72;;
61096;SDS011;46977;50.936;6.908;2023-02-15T14:24:52;7.57;;;6.10;;
61096;SDS011;46977;50.936;6.908;2023-02-15T14:28:03;7.70;;;5.90;;
61096;SDS011;46977;50.936;6.908;2023-02-15T14:31:11;8.23;;;5.78;;
61096;SDS011;46977;50.936;6.908;2023-02-15T14:34:18;7.45;;;6.13;;
61096;SDS011;46977;50.936;6.908;2023-02-15T14:37:26;8.55;;;6.53;;
61096;SDS011;46977;50.936;6.908;2023-02-15T14:40:38;7.57;;;5.90;;
61096;SDS011;46977;50.936;6.908;2023-02-15T14:44:05;6.72;;;6.05;;
61096;SDS011;46977;50.936;6.908;2023-02-15T14:47:15;8.43;;;5.70;;
61096;SDS011;46977;50.936;6.908;2023-02-15T14:50:36;8.32;;;6.28;;
61096;SDS011;46977;50.936;6.908;2023-02-15T14:53:45;8.23;;;6.15;;
61096;SDS011;46977;50.936;6.908;2023-02-15T14:57:20;7.88;;;5.93;;
61096;SDS011;46977;50.936;6.908;2023-02-15T15:00:36;9.27;;;5.45;;
61096;SDS011;46977;50.936;6.908;2023-02-15T15:03:43;9.85;;;5.85;;
61096;SDS011;46977;50.936;6.908;2023-02-15T15:06:57;7.68;;;5.80;;
61096;SDS011;46977;50.936;6.908;2023-02-15T15:10:05;7.53;;;5.80;;
61096;SDS011;46977;50.936;6.908;2023-02-15T15:13:37;9.18;;;6.93;;
61096;SDS011;46977;50.936;6.908;2023-02-15T15:16:56;11.75;;;6.65;;
61096;SDS011;46977;50.936;6.908;2023-02-15T15:20:01;7.03;;;5.30;;
61096;SDS011;46977;50.936;6.908;2023-02-15T15:26:51;8.45;;;5.78;;
61096;SDS011;46977;50.936;6.908;2023-02-15T15:41:16;8.35;;;6.47;;
61096;SDS011;46977;50.936;6.908;2023-02-15T15:44:33;7.90;;;6.28;;
61096;SDS011;46977;50.936;6.908;2023-02-15T15:47:54;7.55;;;6.80;;
61096;SDS011;46977;50.936;6.908;2023-02-15T15:51:21;7.68;;;6.28;;
61096;SDS011;46977;50.936;6.908;2023-02-15T15:54:30;7.80;;;6.20;;
61096;SDS011;46977;50.936;6.908;2023-02-15T15:57:34;8.90;;;6.95;;
61096;SDS011;46977;50.936;6.908;2023-02-15T16:00:41;9.38;;;6.93;;
61096;SDS011;46977;50.936;6.908;2023-02-15T16:03:49;7.78;;;6.35;;
61096;SDS011;46977;50.936;6.908;2023-02-15T16:06:53;8.35;;;6.60;;
61096;SDS011;46977;50.936;6.908;2023-02-15T16:09:57;10.25;;;6.57;;
61096;SDS011;46977;50.936;6.908;2023-02-15T16:13:01;8.07;;;6.20;;
61096;SDS011;46977;50.936;6.908;2023-02-15T16:16:04;7.10;;;6.15;;
61096;SDS011;46977;50.936;6.908;2023-02-15T16:19:14;8.18;;;6.57;;
61096;SDS011;46977;50.936;6.908;2023-02-15T16:22:19;9.32;;;6.80;;
61096;SDS011;46977;50.936;6.908;2023-02-15T16:25:36;8.55;;;6.88;;
61096;SDS011;46977;50.936;6.908;2023-02-15T16:28:47;8.98;;;6.40;;
61096;SDS011;46977;50.936;6.908;2023-02-15T16:31:56;9.57;;;6.90;;
61096;SDS011;46977;50.936;6.908;2023-02-15T16:35:01;7.75;;;6.15;;
61096;SDS011;46977;50.936;6.908;2023-02-15T16:38:04;8.70;;;6.18;;
61096;SDS011;46977;50.936;6.908;2023-02-15T16:41:08;9.02;;;6.93;;
61096;SDS011;46977;50.936;6.908;2023-02-15T16:44:12;8.77;;;7.78;;
61096;SDS011;46977;50.936;6.908;2023-02-15T16:47:19;8.80;;;7.13;;
61096;SDS011;46977;50.936;6.908;2023-02-15T16:50:26;9.25;;;6.78;;
61096;SDS011;46977;50.936;6.908;2023-02-15T16:53:34;7.60;;;6.75;;
61096;SDS011;46977;50.936;6.908;2023-02-15T16:56:38;9.48;;;6.20;;
61096;SDS011;46977;50.936;6.908;2023-02-15T16:59:46;9.68;;;6.90;;
61096;SDS011;46977;50.936;6.908;2023-02-15T17:02:53;10.10;;;5.85;;
61096;SDS011;46977;50.936;6.908;2023-02-15T17:05:58;13.35;;;7.30;;
61096;SDS011;46977;50.936;6.908;2023-02-15T17:09:02;7.25;;;6.20;;
61096;SDS011;46977;50.936;6.908;2023-02-15T17:12:09;12.30;;;7.05;;
61096;SDS011;46977;50.936;6.908;2023-02-15T17:15:24;9.70;;;7.15;;
61096;SDS011;46977;50.936;6.908;2023-02-15T17:18:29;8.60;;;6.93;;
61096;SDS011;46977;50.936;6.908;2023-02-15T17:21:32;10.70;;;7.43;;
61096;SDS011;46977;50.936;6.908;2023-02-15T17:24:38;90.40;;;81.10;;
61096;SDS011;46977;50.936;6.908;2023-02-15T17:27:42;32.17;;;26.98;;
61096;SDS011;46977;50.936;6.908;2023-02-15T17:30:45;12.82;;;11.60;;
61096;SDS011;46977;50.936;6.908;2023-02-15T17:33:48;11.02;;;8.45;;
61096;SDS011;46977;50.936;6.908;2023-02-15T17:36:58;16.23;;;13.60;;
61096;SDS011;46977;50.936;6.908;2023-02-15T17:40:05;47.15;;;40.70;;
61096;SDS011;46977;50.936;6.908;2023-02-15T17:43:17;23.42;;;20.77;;
61096;SDS011;46977;50.936;6.908;2023-02-15T17:46:20;32.20;;;24.27;;
61096;SDS011;46977;50.936;6.908;2023-02-15T17:49:26;8.80;;;7.60;;
61096;SDS011;46977;50.936;6.908;2023-02-15T17:52:35;10.68;;;6.18;;
61096;SDS011;46977;50.936;6.908;2023-02-15T17:55:38;8.50;;;7.40;;
61096;SDS011;46977;50.936;6.908;2023-02-15T17:58:42;9.93;;;7.25;;
61096;SDS011;46977;50.936;6.908;2023-02-15T18:01:44;7.93;;;6.40;;
61096;SDS011;46977;50.936;6.908;2023-02-15T18:05:07;9.10;;;7.60;;
61096;SDS011;46977;50.936;6.908;2023-02-15T18:08:33;9.65;;;7.20;;
61096;SDS011;46977;50.936;6.908;2023-02-15T18:11:54;8.93;;;6.72;;
61096;SDS011;46977;50.936;6.908;2023-02-15T18:14:58;9.63;;;7.10;;
61096;SDS011;46977;50.936;6.908;2023-02-15T18:18:02;10.02;;;8.38;;
61096;SDS011;46977;50.936;6.908;2023-02-15T18:21:06;12.25;;;7.78;;
61096;SDS011;46977;50.936;6.908;2023-02-15T18:24:13;13.30;;;8.75;;
61096;SDS011;46977;50.936;6.908;2023-02-15T18:27:17;7.30;;;6.10;;
61096;SDS011;46977;50.936;6.908;2023-02-15T18:30:21;10.05;;;7.60;;
61096;SDS011;46977;50.936;6.908;2023-02-15T18:33:27;10.48;;;7.03;;
61096;SDS011;46977;50.936;6.908;2023-02-15T18:36:35;9.30;;;7.55;;
61096;SDS011;46977;50.936;6.908;2023-02-15T18:39:42;10.23;;;6.68;;
61096;SDS011;46977;50.936;6.908;2023-02-15T18:42:47;9.70;;;6.75;;
61096;SDS011;46977;50.936;6.908;2023-02-15T18:45:51;10.93;;;7.50;;
61096;SDS011;46977;50.936;6.908;2023-02-15T18:48:54;8.40;;;6.55;;
61096;SDS011;46977;50.936;6.908;2023-02-15T18:51:56;12.13;;;7.75;;
61096;SDS011;46977;50.936;6.908;2023-02-15T18:54:59;7.93;;;6.72;;
61096;SDS011;46977;50.936;6.908;2023-02-15T18:58:04;11.13;;;7.45;;
61096;SDS011;46977;50.936;6.908;2023-02-15T19:01:09;7.90;;;6.57;;
61096;SDS011;46977;50.936;6.908;2023-02-15T19:04:17;9.30;;;6.83;;